Time;durP1;ratioP1;P1;durP2;ratioP2;P2;SDS_P1;SDS_P2;PMS_P1;PMS_P2;Temp;Humidity;BMP_temperature;BMP_pressure;BME280_temperature;BME280_humidity;BME280_pressure;Samples;Min_cycle;Max_cycle;Signal;HPM_P1;HPM_P2
2022/12/06 00:02:54;;;;;;;12.60;3.72;;;12.20;99.90;;;;;;5052807;28;20044;-72
2022/12/06 00:06:07;;;;;;;15.95;3.47;;;12.20;99.90;;;;;;5050401;28;20494;-72
2022/12/06 00:09:22;;;;;;;13.55;3.30;;;12.20;99.90;;;;;;5052535;28;20040;-72
2022/12/06 00:12:26;;;;;;;18.80;3.28;;;12.20;99.90;;;;;;5052923;28;20395;-72
2022/12/06 00:15:35;;;;;;;16.40;4.10;;;12.30;99.90;;;;;;5052281;28;20044;-72
2022/12/06 00:18:41;;;;;;;14.13;3.30;;;12.30;99.90;;;;;;5052542;28;20388;-72
2022/12/06 00:21:47;;;;;;;15.23;4.28;;;12.30;99.90;;;;;;5052424;28;20047;-72
2022/12/06 00:24:52;;;;;;;19.30;3.75;;;12.20;99.90;;;;;;5052044;28;20428;-72
2022/12/06 00:27:57;;;;;;;19.20;3.72;;;12.20;99.90;;;;;;5051354;28;20055;-72
2022/12/06 00:31:05;;;;;;;9.88;3.10;;;12.20;99.90;;;;;;5052010;28;20047;-72
2022/12/06 00:34:09;;;;;;;9.90;3.20;;;12.00;99.90;;;;;;5051915;28;20048;-72
2022/12/06 00:37:13;;;;;;;20.27;4.28;;;12.00;99.90;;;;;;5052062;28;20052;-73
2022/12/06 00:40:17;;;;;;;16.88;5.15;;;11.90;99.90;;;;;;5052735;28;20052;-72
2022/12/06 00:43:22;;;;;;;13.52;4.90;;;11.80;99.90;;;;;;5051899;28;20040;-72
2022/12/06 00:46:29;;;;;;;15.13;4.75;;;11.80;99.90;;;;;;5052161;28;20056;-72
2022/12/06 00:49:33;;;;;;;14.75;4.95;;;11.70;99.90;;;;;;5051621;28;20048;-72
2022/12/06 00:52:37;;;;;;;14.15;5.82;;;11.70;99.90;;;;;;5052245;28;20048;-71
2022/12/06 00:55:42;;;;;;;21.83;6.10;;;11.60;99.90;;;;;;5051325;28;20052;-72
2022/12/06 00:58:47;;;;;;;14.93;5.60;;;11.60;99.90;;;;;;5051305;28;20107;-72
2022/12/06 01:01:51;;;;;;;15.68;5.97;;;11.60;99.90;;;;;;5051457;28;20040;-72
2022/12/06 01:04:56;;;;;;;18.60;5.85;;;11.60;99.90;;;;;;5051062;28;20040;-72
2022/12/06 01:08:01;;;;;;;15.13;5.82;;;11.60;99.90;;;;;;5051276;28;20048;-71
2022/12/06 01:11:06;;;;;;;18.83;6.38;;;11.70;99.90;;;;;;5051365;28;20040;-72
2022/12/06 01:14:11;;;;;;;27.63;6.20;;;11.70;99.90;;;;;;5051053;28;20052;-72
2022/12/06 01:17:15;;;;;;;15.52;4.32;;;11.80;99.90;;;;;;5051265;28;20506;-72
2022/12/06 01:20:21;;;;;;;13.25;4.15;;;11.80;99.90;;;;;;5053932;28;20073;-72
2022/12/06 01:23:25;;;;;;;20.77;4.80;;;11.90;99.90;;;;;;5051101;28;20400;-72
2022/12/06 01:26:31;;;;;;;13.20;4.18;;;12.00;99.90;;;;;;5050688;28;20048;-72
2022/12/06 01:29:36;;;;;;;18.92;4.05;;;11.90;99.90;;;;;;5050864;28;20404;-72
2022/12/06 01:32:40;;;;;;;10.75;3.08;;;11.90;99.90;;;;;;5050403;28;20044;-71
2022/12/06 01:35:45;;;;;;;12.15;2.60;;;11.90;99.90;;;;;;5050829;28;20043;-71
2022/12/06 01:38:54;;;;;;;10.35;2.53;;;11.90;99.90;;;;;;5050875;28;20506;-71
2022/12/06 01:41:58;;;;;;;16.50;3.15;;;11.90;99.90;;;;;;5050911;28;20048;-71
2022/12/06 01:45:03;;;;;;;13.35;3.70;;;11.80;99.90;;;;;;5050696;28;20044;-72
2022/12/06 01:48:07;;;;;;;15.35;5.10;;;11.80;99.90;;;;;;5050872;28;20507;-71
2022/12/06 01:51:13;;;;;;;19.83;14.27;;;11.80;99.90;;;;;;5050854;28;20052;-71
2022/12/06 01:54:19;;;;;;;13.85;5.50;;;11.70;99.90;;;;;;5050432;28;20391;-71
2022/12/06 01:57:23;;;;;;;8.70;2.83;;;11.70;99.90;;;;;;5050863;28;20048;-71
2022/12/06 02:00:27;;;;;;;13.10;2.80;;;11.70;99.90;;;;;;5050736;28;20052;-69
2022/12/06 02:03:32;;;;;;;7.78;2.92;;;11.60;99.90;;;;;;5050649;28;20048;-71
2022/12/06 02:06:38;;;;;;;13.45;3.80;;;11.60;99.90;;;;;;5050425;28;20043;-71
2022/12/06 02:09:44;;;;;;;6.25;3.80;;;11.60;99.90;;;;;;5050451;28;20056;-71
2022/12/06 02:12:53;;;;;;;10.05;4.57;;;11.60;99.90;;;;;;5050463;28;20055;-71
2022/12/06 02:16:18;;;;;;;17.23;4.25;;;11.50;99.90;;;;;;5050133;28;20040;-71
2022/12/06 02:19:52;;;;;;;10.95;3.85;;;11.50;99.90;;;;;;5050222;28;20051;-72
2022/12/06 02:23:06;;;;;;;16.27;4.03;;;11.50;99.90;;;;;;5050045;28;20498;-71
2022/12/06 02:26:44;;;;;;;6.60;3.92;;;11.50;99.90;;;;;;5050156;28;20052;-71
2022/12/06 02:30:10;;;;;;;6.88;4.18;;;11.50;99.90;;;;;;5050030;28;20047;-71
2022/12/06 02:33:31;;;;;;;6.65;2.80;;;11.40;99.90;;;;;;5049874;28;20068;-71
2022/12/06 02:37:02;;;;;;;11.38;3.10;;;11.40;99.90;;;;;;5049719;28;20040;-71
2022/12/06 02:40:13;;;;;;;12.80;2.58;;;11.40;99.90;;;;;;5049990;28;20060;-71
2022/12/06 02:43:23;;;;;;;17.30;2.67;;;11.40;99.90;;;;;;5050089;28;20518;-70
2022/12/06 02:46:31;;;;;;;11.57;2.78;;;11.40;99.90;;;;;;5064790;28;20055;-71
2022/12/06 02:49:38;;;;;;;9.05;2.58;;;11.50;99.90;;;;;;5054204;28;20266;-71
2022/12/06 02:52:46;;;;;;;11.07;2.15;;;11.50;99.90;;;;;;5054368;28;20072;-71
2022/12/06 02:55:52;;;;;;;12.18;2.10;;;11.50;99.90;;;;;;5054138;28;20369;-71
2022/12/06 02:58:56;;;;;;;10.82;2.67;;;11.60;99.90;;;;;;5054035;28;20044;-72
2022/12/06 03:02:03;;;;;;;9.27;2.20;;;11.60;99.90;;;;;;5053701;28;20060;-71
2022/12/06 03:05:30;;;;;;;9.80;2.22;;;11.60;99.90;;;;;;5064007;28;20391;-71
2022/12/06 03:08:47;;;;;;;7.97;2.30;;;11.70;99.90;;;;;;5053567;28;20055;-71
2022/12/06 03:12:23;;;;;;;8.43;2.20;;;11.70;99.90;;;;;;5053502;28;20396;-71
2022/12/06 03:15:45;;;;;;;8.02;2.35;;;11.60;99.90;;;;;;5053265;28;20507;-71
2022/12/06 03:19:05;;;;;;;8.85;3.25;;;11.60;99.90;;;;;;5053854;28;20044;-71
2022/12/06 03:22:22;;;;;;;10.90;2.90;;;11.40;99.90;;;;;;5053557;28;20044;-71
2022/12/06 03:25:29;;;;;;;10.85;2.40;;;11.40;99.90;;;;;;5052902;28;20047;-71
2022/12/06 03:28:35;;;;;;;11.82;2.67;;;11.40;99.90;;;;;;5053428;28;20052;-71
2022/12/06 03:31:40;;;;;;;7.40;2.45;;;11.40;99.90;;;;;;5053164;28;20499;-71
2022/12/06 03:34:49;;;;;;;8.95;2.72;;;11.50;99.90;;;;;;5052768;28;20051;-71
2022/12/06 03:38:05;;;;;;;9.60;2.58;;;11.40;99.90;;;;;;5052799;28;20069;-71
2022/12/06 03:41:14;;;;;;;11.73;2.63;;;11.50;99.90;;;;;;5053183;28;20498;-71
2022/12/06 03:44:20;;;;;;;9.80;2.50;;;11.40;99.90;;;;;;5052972;28;20059;-71
2022/12/06 03:47:44;;;;;;;10.77;2.60;;;11.50;99.90;;;;;;5053480;28;20056;-71
2022/12/06 03:50:57;;;;;;;9.45;2.78;;;11.50;99.90;;;;;;5052842;28;20052;-71
2022/12/06 03:54:05;;;;;;;5.82;3.40;;;11.50;99.90;;;;;;5052740;28;20044;-71
2022/12/06 03:57:10;;;;;;;8.45;2.70;;;11.60;99.90;;;;;;5052092;28;20051;-71
2022/12/06 04:00:15;;;;;;;10.35;2.40;;;11.60;99.90;;;;;;5052860;28;20044;-72
2022/12/06 04:03:19;;;;;;;7.93;2.70;;;11.50;99.90;;;;;;5052229;28;20040;-70
2022/12/06 04:06:23;;;;;;;12.10;2.92;;;11.60;99.90;;;;;;5052286;28;20507;-72
2022/12/06 04:13:01;;;;;;;;;;;11.60;99.90;;;;;;5053092;28;20048;-72
2022/12/06 04:18:09;;;;;;;15.05;3.20;;;11.60;99.90;;;;;;5052763;28;19909;-71
2022/12/06 04:19:29;;;;;;;11.10;3.15;;;11.60;99.90;;;;;;5052144;28;20400;-72
2022/12/06 04:25:55;;;;;;;;;;;11.70;99.90;;;;;;5052669;28;20044;-72
2022/12/06 04:39:10;;;;;;;9.00;2.95;;;11.70;99.90;;;;;;5052098;28;20048;-73
2022/12/06 04:45:37;;;;;;;16.00;4.53;;;11.60;99.90;;;;;;5052346;28;20048;-72
2022/12/06 04:48:42;;;;;;;12.73;3.65;;;11.60;99.90;;;;;;5052236;28;20048;-72
2022/12/06 04:51:46;;;;;;;10.45;3.25;;;11.60;99.90;;;;;;5052088;28;20531;-73
2022/12/06 04:54:50;;;;;;;7.80;3.22;;;11.50;99.90;;;;;;5051677;28;20048;-72
2022/12/06 04:57:54;;;;;;;13.20;4.70;;;11.50;99.90;;;;;;5051665;28;20048;-72
2022/12/06 05:00:59;;;;;;;4.72;2.47;;;11.60;99.90;;;;;;5051932;28;20399;-73
2022/12/06 05:04:04;;;;;;;10.85;2.65;;;11.50;99.90;;;;;;5051641;28;20060;-74
2022/12/06 05:07:10;;;;;;;8.98;3.45;;;11.50;99.90;;;;;;5050879;28;20056;-73
2022/12/06 05:10:14;;;;;;;11.98;3.63;;;11.50;99.90;;;;;;5052143;28;20630;-73
2022/12/06 05:13:19;;;;;;;750.95;39.42;;;11.40;99.90;;;;;;5051357;28;20044;-72
2022/12/06 05:16:23;;;;;;;618.38;36.53;;;11.30;99.90;;;;;;5051630;28;20052;-72
2022/12/06 05:19:30;;;;;;;105.38;9.48;;;11.10;99.90;;;;;;5051737;28;20040;-73
2022/12/06 05:22:35;;;;;;;32.65;6.30;;;11.10;99.90;;;;;;5050569;28;20055;-73
2022/12/06 05:25:39;;;;;;;10.20;5.50;;;11.00;99.90;;;;;;5051362;28;20052;-73
2022/12/06 05:28:47;;;;;;;8.88;4.47;;;11.10;99.90;;;;;;5050421;28;20388;-72
2022/12/06 05:31:51;;;;;;;11.00;5.10;;;11.10;99.90;;;;;;5050174;28;20052;-73
2022/12/06 05:34:57;;;;;;;12.52;4.70;;;11.20;99.90;;;;;;5050790;28;20055;-73
2022/12/06 05:38:01;;;;;;;11.85;5.28;;;11.20;99.90;;;;;;5061823;28;20063;-73
2022/12/06 05:41:05;;;;;;;12.07;4.88;;;11.20;99.90;;;;;;5051137;28;20040;-72
2022/12/06 05:44:11;;;;;;;12.38;5.10;;;11.20;99.90;;;;;;5061099;28;20040;-73
2022/12/06 05:47:15;;;;;;;13.25;5.32;;;11.20;99.90;;;;;;5050178;28;20051;-73
2022/12/06 05:50:19;;;;;;;14.23;5.35;;;11.20;99.90;;;;;;5051104;28;20395;-72
2022/12/06 05:53:24;;;;;;;23.80;5.65;;;11.30;99.90;;;;;;5049766;28;20511;-73
2022/12/06 05:56:28;;;;;;;18.77;5.88;;;11.30;99.90;;;;;;5050885;28;20052;-73
2022/12/06 05:59:32;;;;;;;12.40;6.82;;;11.40;99.90;;;;;;5050797;28;20052;-73
2022/12/06 06:02:37;;;;;;;46.10;7.35;;;11.40;99.90;;;;;;5050245;28;20039;-72
2022/12/06 06:05:50;;;;;;;10.52;4.70;;;11.40;99.90;;;;;;5049694;28;20036;-73
2022/12/06 06:08:54;;;;;;;124.78;9.80;;;11.30;99.90;;;;;;5050773;28;20048;-73
2022/12/06 06:11:57;;;;;;;466.75;26.27;;;11.30;99.90;;;;;;5049991;28;20044;-72
2022/12/06 06:15:05;;;;;;;179.07;10.77;;;11.10;99.90;;;;;;5061403;28;20052;-73
2022/12/06 06:18:10;;;;;;;12.98;5.90;;;11.10;99.90;;;;;;5061063;28;20052;-72
2022/12/06 06:21:14;;;;;;;13.98;8.02;;;11.00;99.90;;;;;;5049611;28;20052;-73
2022/12/06 06:24:17;;;;;;;18.02;7.43;;;11.00;99.90;;;;;;5049673;28;20043;-73
2022/12/06 06:27:22;;;;;;;13.52;6.75;;;11.00;99.90;;;;;;5051204;28;20071;-73
2022/12/06 06:30:26;;;;;;;12.40;6.97;;;11.10;99.90;;;;;;5051279;28;20391;-73
2022/12/06 06:33:30;;;;;;;17.63;7.38;;;11.10;99.90;;;;;;5050581;28;20060;-72
2022/12/06 06:36:34;;;;;;;13.00;6.30;;;11.10;99.90;;;;;;5051862;28;20494;-73
2022/12/06 06:39:39;;;;;;;13.77;6.07;;;11.20;99.90;;;;;;5060023;28;20408;-72
2022/12/06 06:42:44;;;;;;;8.18;5.22;;;11.10;99.90;;;;;;5050359;28;20055;-74
2022/12/06 06:45:53;;;;;;;13.85;5.38;;;11.20;99.90;;;;;;5049470;28;20044;-73
2022/12/06 06:48:57;;;;;;;15.20;5.15;;;11.10;99.90;;;;;;5051042;28;20068;-73
2022/12/06 06:52:02;;;;;;;13.52;5.15;;;11.20;99.90;;;;;;5051076;28;20486;-74
2022/12/06 06:55:06;;;;;;;8.73;5.95;;;11.10;99.90;;;;;;5050291;28;20055;-73
2022/12/06 06:58:13;;;;;;;18.13;6.72;;;11.00;99.90;;;;;;5050669;28;20582;-73
2022/12/06 07:01:22;;;;;;;18.95;10.43;;;11.00;99.90;;;;;;5050608;28;20048;-74
2022/12/06 07:04:26;;;;;;;15.90;8.50;;;10.90;99.90;;;;;;5037503;28;20048;-72
2022/12/06 07:07:31;;;;;;;15.43;7.55;;;10.90;99.90;;;;;;5050828;28;20486;-74
2022/12/06 07:10:34;;;;;;;17.45;9.82;;;11.00;99.90;;;;;;5050044;28;20455;-74
2022/12/06 07:13:40;;;;;;;14.88;8.05;;;11.00;99.90;;;;;;5036014;28;20064;-73
2022/12/06 07:16:45;;;;;;;14.48;8.32;;;11.10;99.90;;;;;;5030871;28;20377;-73
2022/12/06 07:19:48;;;;;;;16.02;7.13;;;11.10;99.90;;;;;;5029770;28;20068;-73
2022/12/06 07:22:54;;;;;;;14.23;8.05;;;11.20;99.90;;;;;;5030238;28;20052;-73
2022/12/06 07:26:14;;;;;;;16.30;8.25;;;11.30;99.90;;;;;;5028889;28;20067;-72
2022/12/06 07:29:18;;;;;;;12.93;6.63;;;11.30;99.90;;;;;;5011014;28;20053;-74
2022/12/06 07:32:23;;;;;;;16.73;8.40;;;11.30;99.90;;;;;;5042871;28;20463;-73
2022/12/06 07:35:27;;;;;;;21.17;10.52;;;11.30;99.90;;;;;;5035005;28;20487;-73
2022/12/06 07:38:32;;;;;;;21.90;11.23;;;11.40;99.90;;;;;;5048318;28;20040;-73
2022/12/06 07:45:14;;;;;;;35.80;15.45;;;11.50;99.90;;;;;;5014233;28;20041;-74
2022/12/06 07:48:19;;;;;;;32.88;13.90;;;11.50;99.90;;;;;;5033416;28;20064;-73
2022/12/06 07:51:23;;;;;;;33.38;12.35;;;11.60;99.90;;;;;;5036031;28;20515;-71
2022/12/06 07:54:27;;;;;;;25.85;12.60;;;11.60;99.90;;;;;;5033619;28;20388;-73
2022/12/06 07:57:32;;;;;;;56.92;16.20;;;11.60;99.90;;;;;;5042714;28;20095;-74
2022/12/06 08:00:36;;;;;;;24.50;12.55;;;11.60;99.90;;;;;;5029248;28;20163;-73
2022/12/06 08:03:41;;;;;;;21.88;11.13;;;11.60;99.90;;;;;;5018214;28;20067;-74
2022/12/06 08:06:45;;;;;;;25.60;13.57;;;11.60;99.90;;;;;;5045906;28;20044;-73
2022/12/06 08:09:51;;;;;;;25.17;14.18;;;11.50;99.90;;;;;;5039374;28;20041;-74
2022/12/06 08:12:55;;;;;;;27.30;14.38;;;11.50;99.90;;;;;;5035234;28;20040;-74
2022/12/06 08:16:03;;;;;;;45.22;13.98;;;11.50;99.90;;;;;;5034431;28;20129;-74
2022/12/06 08:19:08;;;;;;;24.38;12.93;;;11.60;99.90;;;;;;5027069;28;20048;-73
2022/12/06 08:22:12;;;;;;;24.95;12.70;;;11.70;99.90;;;;;;5023452;28;20049;-73
2022/12/06 08:25:16;;;;;;;28.70;13.13;;;11.70;99.90;;;;;;5034164;28;20048;-73
2022/12/06 08:28:21;;;;;;;27.02;13.02;;;11.80;99.90;;;;;;5040341;28;20040;-73
2022/12/06 08:31:26;;;;;;;23.50;11.90;;;11.80;99.90;;;;;;5030378;28;20060;-72
2022/12/06 08:34:30;;;;;;;40.78;20.52;;;11.70;99.90;;;;;;5030737;28;20491;-73
2022/12/06 08:37:34;;;;;;;49.78;24.70;;;11.70;99.90;;;;;;5027551;28;20052;-73
2022/12/06 08:40:37;;;;;;;85.57;17.40;;;11.60;99.90;;;;;;5030323;28;20045;-74
2022/12/06 08:43:41;;;;;;;351.83;33.33;;;11.50;99.90;;;;;;5049403;28;20053;-73
2022/12/06 08:46:46;;;;;;;615.90;45.35;;;11.50;99.90;;;;;;5026314;28;20064;-73
2022/12/06 08:49:50;;;;;;;163.05;21.63;;;11.50;99.90;;;;;;5028649;28;20068;-73
2022/12/06 08:52:54;;;;;;;182.30;21.90;;;11.70;99.90;;;;;;5033586;28;20044;-73
2022/12/06 08:55:59;;;;;;;25.75;13.55;;;12.00;99.90;;;;;;5032821;28;20045;-73
2022/12/06 08:59:03;;;;;;;22.65;12.40;;;12.20;99.90;;;;;;5030869;28;20400;-73
2022/12/06 09:02:12;;;;;;;24.80;12.82;;;12.40;99.90;;;;;;5026487;28;20053;-73
2022/12/06 09:05:16;;;;;;;23.42;11.85;;;12.50;99.90;;;;;;5028000;28;20420;-73
2022/12/06 09:08:20;;;;;;;31.90;14.65;;;12.50;99.90;;;;;;5028252;28;20483;-73
2022/12/06 09:11:25;;;;;;;23.85;12.07;;;12.30;99.90;;;;;;5032621;28;20040;-73
2022/12/06 09:14:29;;;;;;;27.95;12.80;;;12.30;99.90;;;;;;5029613;28;20403;-73
2022/12/06 09:17:35;;;;;;;28.45;12.23;;;12.60;99.90;;;;;;5028244;28;20062;-73
2022/12/06 09:20:40;;;;;;;26.63;12.88;;;12.80;99.90;;;;;;5036599;28;20040;-72
2022/12/06 09:23:44;;;;;;;21.45;11.95;;;12.90;99.90;;;;;;5036056;28;20032;-72
2022/12/06 09:26:48;;;;;;;19.25;11.27;;;13.00;99.90;;;;;;5031151;28;20044;-72
2022/12/06 09:29:53;;;;;;;26.73;12.48;;;13.00;99.90;;;;;;5030199;28;20053;-72
2022/12/06 09:32:58;;;;;;;71.72;15.50;;;13.00;99.90;;;;;;5028624;28;20400;-72
2022/12/06 09:36:17;;;;;;;594.20;36.33;;;12.70;99.90;;;;;;5029522;28;20040;-72
2022/12/06 09:39:31;;;;;;;269.13;23.42;;;12.50;99.90;;;;;;5036489;28;20068;-72
2022/12/06 09:42:44;;;;;;;269.35;23.50;;;12.40;99.90;;;;;;5028434;28;20056;-72
2022/12/06 09:46:09;;;;;;;635.92;41.45;;;12.30;99.90;;;;;;5021188;28;20052;-72
2022/12/06 09:49:37;;;;;;;47.13;15.82;;;12.20;99.90;;;;;;5030439;28;20040;-72
2022/12/06 09:53:00;;;;;;;485.08;39.40;;;12.20;99.90;;;;;;5012827;28;20416;-72
2022/12/06 09:56:20;;;;;;;183.60;23.73;;;12.20;99.90;;;;;;5027312;28;20044;-72
2022/12/06 09:59:48;;;;;;;975.33;70.13;;;12.00;99.90;;;;;;5021363;28;20052;-72
2022/12/06 10:03:01;;;;;;;664.55;50.60;;;11.80;99.90;;;;;;5029221;28;20044;-72
2022/12/06 10:06:12;;;;;;;92.50;22.83;;;12.10;99.90;;;;;;5026401;28;20052;-72
2022/12/06 10:09:26;;;;;;;415.50;35.03;;;12.20;99.90;;;;;;5029089;28;20056;-71
2022/12/06 10:12:53;;;;;;;83.35;21.23;;;12.30;99.90;;;;;;5029613;28;20372;-71
2022/12/06 10:16:03;;;;;;;570.22;54.17;;;12.30;99.90;;;;;;5030163;28;20095;-72
2022/12/06 10:19:35;;;;;;;136.73;25.80;;;12.30;99.90;;;;;;5030958;28;20045;-72
2022/12/06 10:22:49;;;;;;;68.03;17.50;;;12.40;99.90;;;;;;5027601;28;20391;-72
2022/12/06 10:26:14;;;;;;;40.25;17.85;;;12.60;99.90;;;;;;5034228;28;20032;-72
2022/12/06 10:29:45;;;;;;;28.55;16.50;;;13.00;99.90;;;;;;5040944;28;20107;-72
2022/12/06 10:33:02;;;;;;;33.00;18.58;;;13.20;99.90;;;;;;5030977;28;20052;-72
2022/12/06 10:36:11;;;;;;;35.25;20.98;;;13.30;99.90;;;;;;5033863;28;20068;-72
2022/12/06 10:39:54;;;;;;;32.83;20.88;;;13.50;99.90;;;;;;5025879;28;20044;-73
2022/12/06 10:43:01;;;;;;;32.08;19.67;;;13.60;99.90;;;;;;5029859;28;20420;-72
2022/12/06 10:50:24;;;;;;;26.20;15.70;;;13.70;99.90;;;;;;5025089;28;20057;-73
2022/12/06 10:53:36;;;;;;;25.77;13.98;;;13.80;99.90;;;;;;5025998;28;20665;-73
2022/12/06 10:56:40;;;;;;;;;;;14.20;99.90;;;;;;5030984;28;20040;-72
2022/12/06 10:59:57;;;;;;;25.20;13.00;;;14.30;99.90;;;;;;5038300;28;19913;-72
2022/12/06 11:03:13;;;;;;;20.63;11.63;;;14.20;99.90;;;;;;5026792;28;20484;-72
2022/12/06 11:06:39;;;;;;;28.45;13.00;;;14.30;99.90;;;;;;5026729;28;20060;-72
2022/12/06 11:09:51;;;;;;;27.80;13.43;;;13.60;99.90;;;;;;5036122;28;20120;-72
2022/12/06 11:13:39;;;;;;;26.75;14.13;;;13.50;99.90;;;;;;5038091;28;20056;-72
2022/12/06 11:16:59;;;;;;;25.83;13.90;;;13.40;99.90;;;;;;5051971;28;20048;-72
2022/12/06 11:20:20;;;;;;;21.48;13.63;;;13.20;99.90;;;;;;5032078;28;20056;-72
2022/12/06 11:23:47;;;;;;;26.33;15.77;;;13.10;99.90;;;;;;5029268;28;20056;-72
2022/12/06 11:27:15;;;;;;;39.67;19.38;;;12.90;99.90;;;;;;5040387;28;20064;-72
2022/12/06 11:30:20;;;;;;;30.20;17.95;;;12.70;99.90;;;;;;5048370;28;20387;-72
2022/12/06 11:33:30;;;;;;;47.60;25.33;;;12.90;99.90;;;;;;5032371;28;20044;-72
2022/12/06 11:36:36;;;;;;;40.35;24.85;;;12.90;99.90;;;;;;5029831;28;20044;-72
2022/12/06 11:39:40;;;;;;;43.45;26.38;;;12.90;99.90;;;;;;5032471;28;20044;-73
2022/12/06 11:42:44;;;;;;;25.13;16.55;;;12.90;99.90;;;;;;5039651;28;20396;-72
2022/12/06 11:45:49;;;;;;;33.17;20.90;;;13.00;99.90;;;;;;5028128;28;20396;-73
2022/12/06 11:49:03;;;;;;;29.13;17.60;;;13.00;99.90;;;;;;5027155;28;20048;-72
2022/12/06 11:52:19;;;;;;;27.30;16.70;;;13.00;99.90;;;;;;5040917;28;20067;-72
2022/12/06 11:55:35;;;;;;;31.05;16.67;;;12.90;99.90;;;;;;5029237;28;20053;-72
2022/12/06 11:58:49;;;;;;;29.98;16.85;;;13.00;99.90;;;;;;5027522;28;20045;-73
2022/12/06 12:01:56;;;;;;;30.65;16.70;;;12.80;99.90;;;;;;5044527;28;20076;-72
2022/12/06 12:05:15;;;;;;;27.52;16.58;;;12.80;99.90;;;;;;5033537;28;20045;-71
2022/12/06 12:08:21;;;;;;;33.72;21.77;;;12.80;99.90;;;;;;5035781;28;20055;-72
2022/12/06 12:11:29;;;;;;;26.25;16.50;;;12.90;99.90;;;;;;5034147;28;20047;-72
2022/12/06 12:14:38;;;;;;;27.70;16.77;;;13.00;99.90;;;;;;5028224;28;20056;-73
2022/12/06 12:17:48;;;;;;;20.05;13.45;;;13.00;99.90;;;;;;5029579;28;20044;-72
2022/12/06 12:20:53;;;;;;;23.27;14.23;;;13.10;99.90;;;;;;5039209;28;20136;-72
2022/12/06 12:23:57;;;;;;;20.38;11.05;;;13.40;99.90;;;;;;5028150;28;20044;-72
2022/12/06 12:27:33;;;;;;;18.63;9.93;;;13.70;99.90;;;;;;5040273;28;20044;-72
2022/12/06 12:30:52;;;;;;;19.67;10.32;;;13.70;99.90;;;;;;5027828;28;20037;-72
2022/12/06 12:34:31;;;;;;;21.65;10.70;;;13.70;99.90;;;;;;5025260;28;20052;-72
2022/12/06 12:37:38;;;;;;;22.88;13.43;;;13.50;99.90;;;;;;5030809;28;20052;-72
2022/12/06 12:40:54;;;;;;;22.92;11.57;;;13.40;99.90;;;;;;5029885;28;20108;-72
2022/12/06 12:44:14;;;;;;;20.17;11.45;;;13.30;99.90;;;;;;5026589;28;20056;-72
2022/12/06 12:47:19;;;;;;;17.75;8.82;;;13.20;99.90;;;;;;5027911;28;20048;-72
2022/12/06 12:50:24;;;;;;;16.25;8.32;;;13.40;99.90;;;;;;5031391;28;20052;-72
2022/12/06 12:53:37;;;;;;;14.25;7.68;;;13.40;99.90;;;;;;5033965;28;20080;-72
2022/12/06 12:56:41;;;;;;;13.43;7.28;;;13.50;99.90;;;;;;5029060;28;20052;-72
2022/12/06 12:59:45;;;;;;;15.50;7.25;;;13.60;99.90;;;;;;5037382;28;20044;-72
2022/12/06 13:02:55;;;;;;;14.07;5.50;;;13.50;99.90;;;;;;5020386;28;20388;-72
2022/12/06 13:06:01;;;;;;;16.05;6.40;;;13.50;99.90;;;;;;5029582;28;20366;-72
2022/12/06 13:09:14;;;;;;;11.15;5.60;;;13.20;99.90;;;;;;5032750;28;20048;-73
2022/12/06 13:12:26;;;;;;;14.70;5.90;;;13.20;99.90;;;;;;5035692;28;20064;-72
2022/12/06 13:15:40;;;;;;;11.07;6.70;;;13.20;99.90;;;;;;5030712;28;20060;-72
2022/12/06 13:18:50;;;;;;;14.65;6.03;;;13.30;99.90;;;;;;5026966;28;20048;-72
2022/12/06 13:21:54;;;;;;;11.88;5.38;;;13.20;99.90;;;;;;5029382;28;20365;-72
2022/12/06 13:25:01;;;;;;;10.40;4.70;;;13.20;99.90;;;;;;5029482;28;20040;-72
2022/12/06 13:28:18;;;;;;;10.40;4.15;;;13.50;99.90;;;;;;5030955;28;20117;-72
2022/12/06 13:31:28;;;;;;;10.27;4.60;;;13.50;99.90;;;;;;5024383;28;20044;-72
2022/12/06 13:34:49;;;;;;;12.55;5.18;;;13.30;99.90;;;;;;5037143;28;20037;-72
2022/12/06 13:37:59;;;;;;;8.93;5.43;;;13.00;99.90;;;;;;5025091;28;20056;-72
2022/12/06 13:41:05;;;;;;;10.88;6.43;;;12.90;99.90;;;;;;5030398;28;20483;-72
2022/12/06 13:44:37;;;;;;;20.42;7.72;;;12.80;99.90;;;;;;5035005;28;20045;-72
2022/12/06 13:47:48;;;;;;;19.27;7.90;;;12.70;99.90;;;;;;5026919;28;20032;-72
2022/12/06 13:51:10;;;;;;;11.65;8.23;;;12.70;99.90;;;;;;5027026;28;20068;-71
2022/12/06 13:54:17;;;;;;;17.75;7.30;;;12.60;99.90;;;;;;5022834;28;20541;-72
2022/12/06 13:57:27;;;;;;;17.63;7.20;;;12.60;99.90;;;;;;5027926;28;20060;-72
2022/12/06 14:00:33;;;;;;;12.52;6.30;;;12.60;99.90;;;;;;5035006;28;20052;-71
2022/12/06 14:03:39;;;;;;;18.45;7.03;;;12.60;99.90;;;;;;5026713;28;20057;-72
2022/12/06 14:06:45;;;;;;;16.50;5.80;;;12.70;99.90;;;;;;5026202;28;20064;-72
2022/12/06 14:09:51;;;;;;;9.10;6.03;;;12.60;99.90;;;;;;5034000;28;20051;-72
2022/12/06 14:12:59;;;;;;;15.43;7.65;;;12.70;99.90;;;;;;5041914;28;20392;-72
2022/12/06 14:16:05;;;;;;;20.33;9.55;;;12.70;99.90;;;;;;5029480;28;20124;-72
2022/12/06 14:19:21;;;;;;;20.15;11.27;;;12.60;99.90;;;;;;5027991;28;20048;-72
2022/12/06 14:22:33;;;;;;;25.27;13.82;;;12.60;99.90;;;;;;5030640;28;20386;-72
2022/12/06 14:25:37;;;;;;;24.17;10.30;;;12.60;99.90;;;;;;5024581;28;20044;-72
2022/12/06 14:28:42;;;;;;;16.30;5.88;;;12.60;99.90;;;;;;5029341;28;20052;-72
2022/12/06 14:31:50;;;;;;;14.07;5.72;;;12.50;99.90;;;;;;5028054;28;20048;-72
2022/12/06 14:35:04;;;;;;;12.68;6.05;;;12.50;99.90;;;;;;5030553;28;21517;-71
2022/12/06 14:38:29;;;;;;;15.13;6.43;;;12.50;99.90;;;;;;5026383;28;20048;-71
2022/12/06 14:44:59;;;;;;;14.25;9.55;;;12.30;99.90;;;;;;5028176;28;20132;-73
2022/12/06 14:48:05;;;;;;;12.65;7.30;;;12.10;99.90;;;;;;5032653;28;20036;-73
2022/12/06 14:51:32;;;;;;;13.48;6.55;;;12.10;99.90;;;;;;5035692;28;20052;-72
2022/12/06 14:54:43;;;;;;;14.20;6.60;;;12.10;99.90;;;;;;5035114;28;20053;-73
2022/12/06 14:57:56;;;;;;;13.20;6.97;;;12.10;99.90;;;;;;5036290;28;20040;-72
2022/12/06 15:01:03;;;;;;;13.27;7.55;;;12.00;99.90;;;;;;5032969;28;20056;-72
2022/12/06 15:04:22;;;;;;;14.30;8.45;;;11.90;99.90;;;;;;5027509;28;20044;-72
2022/12/06 15:07:41;;;;;;;17.60;10.27;;;11.90;99.90;;;;;;5032787;28;20041;-72
2022/12/06 15:10:59;;;;;;;14.07;7.47;;;11.70;99.90;;;;;;5031500;28;20053;-73
2022/12/06 15:14:15;;;;;;;20.80;6.82;;;11.70;99.90;;;;;;5032488;28;20049;-73
2022/12/06 15:17:21;;;;;;;18.98;8.25;;;11.70;99.90;;;;;;5030320;28;20787;-73
2022/12/06 15:20:25;;;;;;;14.90;7.97;;;11.60;99.90;;;;;;5031928;28;20056;-73
2022/12/06 15:23:30;;;;;;;16.08;8.07;;;11.40;99.90;;;;;;5028296;28;20076;-73
2022/12/06 15:26:34;;;;;;;16.20;7.30;;;11.30;99.90;;;;;;5039429;28;20039;-73
2022/12/06 15:29:39;;;;;;;19.17;8.43;;;11.30;99.90;;;;;;5036817;28;20052;-73
2022/12/06 15:32:42;;;;;;;10.23;5.90;;;11.30;99.90;;;;;;5032485;28;20040;-72
2022/12/06 15:35:47;;;;;;;16.27;6.97;;;11.20;99.90;;;;;;5033053;28;20056;-73
2022/12/06 15:38:52;;;;;;;14.10;5.63;;;11.20;99.90;;;;;;5054612;28;20052;-72
2022/12/06 15:41:56;;;;;;;14.70;6.65;;;11.20;99.90;;;;;;5013512;28;20051;-72
2022/12/06 15:45:02;;;;;;;11.55;6.50;;;11.20;99.90;;;;;;5031876;28;20048;-73
2022/12/06 15:48:08;;;;;;;11.40;6.18;;;11.30;99.90;;;;;;5041398;28;20045;-73
2022/12/06 15:51:16;;;;;;;12.65;6.28;;;11.30;99.90;;;;;;5024008;28;20519;-73
2022/12/06 15:54:24;;;;;;;12.57;7.45;;;11.30;99.90;;;;;;5029866;28;20044;-72
2022/12/06 15:57:28;;;;;;;12.50;5.07;;;11.40;99.90;;;;;;5029931;28;20044;-70
2022/12/06 16:00:32;;;;;;;11.63;4.65;;;11.30;99.90;;;;;;5028763;28;20041;-72
2022/12/06 16:03:37;;;;;;;9.25;5.00;;;11.40;99.90;;;;;;5029153;28;20052;-73
2022/12/06 16:06:42;;;;;;;14.90;4.65;;;11.40;99.90;;;;;;5032917;28;20052;-72
2022/12/06 16:09:47;;;;;;;8.82;4.68;;;11.40;99.90;;;;;;5037884;28;20044;-72
2022/12/06 16:16:15;;;;;;;19.67;7.25;;;11.40;99.90;;;;;;5041224;28;20508;-72
2022/12/06 16:19:19;;;;;;;18.50;7.65;;;11.30;99.90;;;;;;5032010;28;20060;-72
2022/12/06 16:23:59;;;;;;;15.40;7.13;;;11.20;99.90;;;;;;5028190;28;20049;-72
2022/12/06 16:25:48;;;;;;;12.98;7.50;;;11.30;99.90;;;;;;5030452;28;20048;-72
2022/12/06 16:28:53;;;;;;;18.35;8.75;;;11.30;99.90;;;;;;5032116;28;20056;-72
2022/12/06 16:31:57;;;;;;;24.33;13.32;;;11.30;99.90;;;;;;5031599;28;20120;-72
2022/12/06 16:35:01;;;;;;;17.75;8.18;;;11.30;99.90;;;;;;5032229;28;20152;-72
2022/12/06 16:38:05;;;;;;;11.68;7.97;;;11.30;99.90;;;;;;5030511;28;20044;-72
2022/12/06 16:41:27;;;;;;;20.70;8.75;;;11.40;99.90;;;;;;5028614;28;20044;-72
2022/12/06 16:44:32;;;;;;;17.08;9.77;;;11.40;99.90;;;;;;5031255;28;20052;-72
2022/12/06 16:47:36;;;;;;;17.50;9.35;;;11.40;99.90;;;;;;5028959;28;20048;-73